Time;durP1;ratioP1;P1;durP2;ratioP2;P2;SDS_P1;SDS_P2;PMS_P1;PMS_P2;Temp;Humidity;BMP_temperature;BMP_pressure;BME280_temperature;BME280_humidity;BME280_pressure;Samples;Min_cycle;Max_cycle;Signal;HPM_P1;HPM_P2
2022/03/26 00:00:53;;;;;;;41.37;24.10;;;9.20;61.10;;;;;;5065320;28;20225;-69
2022/03/26 00:03:20;;;;;;;39.33;23.53;;;9.10;61.40;;;;;;5070398;28;20293;-69
2022/03/26 00:05:48;;;;;;;39.90;23.50;;;9.10;61.70;;;;;;5059218;28;20224;-70
2022/03/26 00:08:15;;;;;;;37.50;23.30;;;9.10;61.90;;;;;;5070806;28;20236;-70
2022/03/26 00:10:42;;;;;;;40.93;23.77;;;9.10;62.30;;;;;;5063468;28;20217;-69
2022/03/26 00:13:09;;;;;;;40.10;23.17;;;9.00;62.60;;;;;;5061823;28;20265;-70
2022/03/26 00:15:36;;;;;;;43.00;25.10;;;9.00;63.10;;;;;;5076253;28;20666;-70
2022/03/26 00:18:03;;;;;;;41.03;24.23;;;8.90;63.40;;;;;;5076473;28;20295;-70
2022/03/26 00:20:30;;;;;;;38.10;23.60;;;8.90;63.90;;;;;;5076438;28;20236;-70
2022/03/26 00:22:58;;;;;;;36.90;23.57;;;8.90;64.30;;;;;;5075166;28;20205;-70
2022/03/26 00:25:25;;;;;;;40.37;23.63;;;8.80;64.70;;;;;;5076588;28;20340;-70
2022/03/26 00:27:52;;;;;;;39.07;23.53;;;8.70;65.10;;;;;;5075323;28;20233;-70
2022/03/26 00:30:19;;;;;;;40.83;23.33;;;8.70;65.60;;;;;;5075169;28;20703;-69
2022/03/26 00:32:46;;;;;;;40.73;23.37;;;8.70;66.10;;;;;;5076364;28;20574;-70
2022/03/26 00:35:13;;;;;;;38.50;22.90;;;8.70;66.60;;;;;;5067937;28;20209;-69
2022/03/26 00:37:41;;;;;;;39.23;23.27;;;8.60;67.00;;;;;;5075846;28;20201;-70
2022/03/26 00:40:11;;;;;;;41.47;23.20;;;8.60;67.60;;;;;;5062493;28;20228;-70
2022/03/26 00:42:38;;;;;;;40.60;23.07;;;8.50;68.00;;;;;;5073515;28;20321;-71
2022/03/26 00:45:05;;;;;;;39.97;23.97;;;8.50;68.60;;;;;;5071913;28;20210;-69
2022/03/26 00:47:33;;;;;;;40.40;24.03;;;8.50;69.20;;;;;;5076420;28;20213;-70
2022/03/26 00:50:00;;;;;;;37.03;23.07;;;8.50;69.40;;;;;;5076338;28;20577;-67
2022/03/26 00:52:27;;;;;;;35.67;22.90;;;8.50;70.10;;;;;;5075104;28;20233;-67
2022/03/26 00:54:53;;;;;;;34.40;22.73;;;8.50;70.50;;;;;;5075932;28;20233;-68
2022/03/26 00:57:22;;;;;;;38.33;22.93;;;8.50;71.00;;;;;;5075125;28;20300;-67
2022/03/26 00:59:49;;;;;;;35.30;23.10;;;8.60;71.50;;;;;;5068290;28;20229;-67
2022/03/26 01:02:16;;;;;;;37.57;24.53;;;8.50;71.80;;;;;;5074627;28;20233;-67
2022/03/26 01:04:43;;;;;;;43.50;23.23;;;8.60;72.40;;;;;;5076431;28;20215;-69
2022/03/26 01:07:10;;;;;;;39.10;22.63;;;8.40;72.70;;;;;;5074653;28;20296;-67
2022/03/26 01:09:37;;;;;;;40.07;23.97;;;8.40;73.30;;;;;;5075886;28;20201;-68
2022/03/26 01:12:05;;;;;;;40.23;23.40;;;8.40;73.80;;;;;;5074811;28;20732;-67
2022/03/26 01:14:34;;;;;;;35.53;22.70;;;8.40;74.30;;;;;;5069838;28;20212;-68
2022/03/26 01:17:01;;;;;;;39.07;22.33;;;8.40;75.10;;;;;;5065422;28;20208;-68
2022/03/26 01:19:28;;;;;;;41.97;23.17;;;8.30;75.70;;;;;;5076229;28;20292;-67
2022/03/26 01:21:55;;;;;;;38.37;22.27;;;8.30;76.50;;;;;;5075348;28;20251;-68
2022/03/26 01:24:22;;;;;;;39.53;22.53;;;8.20;77.10;;;;;;5075892;28;20307;-67
2022/03/26 01:26:48;;;;;;;33.50;21.43;;;8.30;78.00;;;;;;5065452;28;20252;-67
2022/03/26 01:29:15;;;;;;;32.93;21.63;;;8.20;78.70;;;;;;5063110;28;20201;-67
2022/03/26 01:31:44;;;;;;;35.27;22.00;;;8.20;79.30;;;;;;5076041;28;20209;-69
2022/03/26 01:34:11;;;;;;;39.43;22.13;;;8.70;80.60;;;;;;5074803;28;20205;-67
2022/03/26 01:36:37;;;;;;;35.57;21.77;;;8.20;80.80;;;;;;5074511;28;20292;-67
2022/03/26 01:39:04;;;;;;;35.27;22.03;;;8.10;81.50;;;;;;5066257;28;20205;-67
2022/03/26 01:41:31;;;;;;;37.60;22.10;;;8.10;82.30;;;;;;5068313;28;20231;-67
2022/03/26 01:43:58;;;;;;;37.37;21.47;;;8.10;83.00;;;;;;5068840;28;20240;-69
2022/03/26 01:46:25;;;;;;;33.93;21.47;;;8.10;83.90;;;;;;5063770;28;20297;-67
2022/03/26 01:48:54;;;;;;;34.93;21.37;;;8.00;84.30;;;;;;5076023;28;20209;-68
2022/03/26 01:51:21;;;;;;;35.67;21.07;;;8.00;85.10;;;;;;5076336;28;20205;-67
2022/03/26 01:53:50;;;;;;;35.77;21.87;;;8.00;85.90;;;;;;5075680;28;20236;-69
2022/03/26 01:56:18;;;;;;;31.83;20.50;;;8.00;86.60;;;;;;5065122;28;20213;-67
2022/03/26 01:58:46;;;;;;;35.83;20.83;;;8.00;87.30;;;;;;5069515;28;20212;-70
2022/03/26 02:01:14;;;;;;;34.13;20.67;;;8.00;87.90;;;;;;5074983;28;20282;-70
2022/03/26 02:03:41;;;;;;;33.43;20.50;;;8.00;88.50;;;;;;5075506;28;20213;-70
2022/03/26 02:06:09;;;;;;;35.50;20.03;;;8.00;88.90;;;;;;5074313;28;20637;-70
2022/03/26 02:08:37;;;;;;;34.97;20.47;;;7.90;89.50;;;;;;5074710;28;20209;-71
2022/03/26 02:11:04;;;;;;;31.73;19.60;;;7.90;90.10;;;;;;5075311;28;20314;-70
2022/03/26 02:13:49;;;;;;;38.37;19.57;;;7.00;90.10;;;;;;5071270;28;20308;-71
2022/03/26 02:16:16;;;;;;;34.80;20.73;;;7.90;90.80;;;;;;5063023;28;20254;-71
2022/03/26 02:18:43;;;;;;;37.87;21.27;;;7.80;91.10;;;;;;5072833;28;20235;-70
2022/03/26 02:21:12;;;;;;;35.93;21.33;;;7.80;91.50;;;;;;5071972;28;20256;-71
2022/03/26 02:23:39;;;;;;;32.33;20.53;;;7.80;91.60;;;;;;5075205;28;20219;-71
2022/03/26 02:26:06;;;;;;;33.93;20.07;;;7.80;92.10;;;;;;5074951;28;20627;-71
2022/03/26 02:28:34;;;;;;;36.17;20.37;;;7.80;92.50;;;;;;5062088;28;20281;-72
2022/03/26 02:31:02;;;;;;;38.80;20.63;;;7.80;92.90;;;;;;5070180;28;20292;-71
2022/03/26 02:33:29;;;;;;;32.83;21.10;;;7.80;93.20;;;;;;5075383;28;20584;-71
2022/03/26 02:35:55;;;;;;;34.37;19.93;;;7.80;93.60;;;;;;5075071;28;20628;-71
2022/03/26 02:38:24;;;;;;;34.57;20.47;;;7.80;93.80;;;;;;5070455;28;20233;-70
2022/03/26 02:40:52;;;;;;;32.80;19.30;;;7.70;94.20;;;;;;5064788;28;20236;-70
2022/03/26 02:43:19;;;;;;;31.10;19.13;;;7.70;94.60;;;;;;5074880;28;20607;-71
2022/03/26 02:45:46;;;;;;;33.30;20.17;;;7.70;95.00;;;;;;5075210;28;20235;-71
2022/03/26 02:48:14;;;;;;;36.50;21.07;;;7.70;95.40;;;;;;5071799;28;20205;-71
2022/03/26 02:50:41;;;;;;;35.33;20.33;;;7.70;95.70;;;;;;5070325;28;20726;-70
2022/03/26 02:53:08;;;;;;;34.90;20.73;;;7.70;95.90;;;;;;5074089;28;20252;-70
2022/03/26 02:55:38;;;;;;;32.90;18.77;;;7.70;96.30;;;;;;5061129;28;20666;-71
2022/03/26 02:58:05;;;;;;;35.47;20.47;;;7.60;96.50;;;;;;5074090;28;20719;-70
2022/03/26 03:00:33;;;;;;;31.23;19.97;;;7.70;96.90;;;;;;5074458;28;20622;-70
2022/03/26 03:03:00;;;;;;;36.80;20.00;;;7.70;97.20;;;;;;5069105;28;20206;-70
2022/03/26 03:05:27;;;;;;;33.93;20.50;;;7.70;97.50;;;;;;5074445;28;20595;-70
2022/03/26 03:07:55;;;;;;;36.73;21.37;;;7.70;97.80;;;;;;5073154;28;20206;-70
2022/03/26 03:10:22;;;;;;;35.13;20.43;;;7.70;98.10;;;;;;5074647;28;20250;-70
2022/03/26 03:12:50;;;;;;;31.77;20.27;;;7.70;98.40;;;;;;5075252;28;20209;-70
2022/03/26 03:15:18;;;;;;;35.93;21.63;;;7.70;98.70;;;;;;5064780;28;20221;-70
2022/03/26 03:17:45;;;;;;;34.00;20.83;;;7.60;99.00;;;;;;5069173;28;20205;-71
2022/03/26 03:20:13;;;;;;;36.83;21.13;;;7.60;99.40;;;;;;5073370;28;20256;-71
2022/03/26 03:22:40;;;;;;;40.53;21.87;;;7.60;99.90;;;;;;5073453;28;20232;-70
2022/03/26 03:25:09;;;;;;;40.00;21.13;;;7.60;99.90;;;;;;5073540;28;20251;-71
2022/03/26 03:27:37;;;;;;;37.37;21.37;;;7.50;99.90;;;;;;5072082;28;20292;-70
2022/03/26 03:30:06;;;;;;;33.83;20.50;;;7.50;99.90;;;;;;5074408;28;20271;-71
2022/03/26 03:32:33;;;;;;;35.13;20.53;;;7.50;99.90;;;;;;5074284;28;20304;-71
2022/03/26 03:35:00;;;;;;;33.53;20.00;;;7.60;99.90;;;;;;5073991;28;20240;-71
2022/03/26 03:37:27;;;;;;;32.67;21.37;;;7.50;99.90;;;;;;5063653;28;20198;-70
2022/03/26 03:39:54;;;;;;;35.17;19.97;;;7.50;99.90;;;;;;5060265;28;20240;-70
2022/03/26 03:42:20;;;;;;;36.40;20.67;;;7.50;99.90;;;;;;5071394;28;20199;-70
2022/03/26 03:44:47;;;;;;;34.10;20.57;;;7.50;99.90;;;;;;5055461;28;20302;-70
2022/03/26 03:47:16;;;;;;;38.93;21.70;;;7.50;99.90;;;;;;5066491;28;20227;-70
2022/03/26 03:49:42;;;;;;;33.67;20.80;;;7.50;99.90;;;;;;5071394;28;20292;-71
2022/03/26 03:52:09;;;;;;;35.53;20.77;;;7.50;99.90;;;;;;5072614;28;20209;-71
2022/03/26 03:54:36;;;;;;;33.23;21.50;;;7.50;99.90;;;;;;5073470;28;20549;-70
2022/03/26 03:57:03;;;;;;;31.37;20.03;;;7.50;99.90;;;;;;5069533;28;20209;-70
2022/03/26 03:59:30;;;;;;;32.13;20.30;;;7.50;99.90;;;;;;5071786;28;20197;-71
2022/03/26 04:01:57;;;;;;;33.57;20.27;;;7.50;99.90;;;;;;5072285;28;20232;-69
2022/03/26 04:04:25;;;;;;;32.47;20.20;;;7.50;99.90;;;;;;5062154;28;20211;-70
2022/03/26 04:06:52;;;;;;;37.77;20.83;;;7.50;99.90;;;;;;5071446;28;20654;-70
2022/03/26 04:09:20;;;;;;;35.43;20.47;;;7.50;99.90;;;;;;5074265;28;20704;-70
2022/03/26 04:11:47;;;;;;;31.77;19.63;;;7.50;99.90;;;;;;5070856;28;20219;-70
2022/03/26 04:14:14;;;;;;;30.93;19.63;;;7.50;99.90;;;;;;5071107;28;20213;-69
2022/03/26 04:16:41;;;;;;;32.10;19.73;;;7.50;99.90;;;;;;5073358;28;20302;-71
2022/03/26 04:19:07;;;;;;;31.30;19.27;;;7.50;99.90;;;;;;5073746;28;20272;-71
2022/03/26 04:21:36;;;;;;;27.60;18.73;;;7.60;99.90;;;;;;5072710;28;20320;-70
2022/03/26 04:24:03;;;;;;;30.10;18.47;;;7.50;99.90;;;;;;5073238;28;20233;-70
2022/03/26 04:26:30;;;;;;;29.50;17.53;;;7.60;99.90;;;;;;5065481;28;20206;-69
2022/03/26 04:28:57;;;;;;;33.50;19.60;;;7.50;99.90;;;;;;5065064;28;20685;-71
2022/03/26 04:31:24;;;;;;;29.10;19.53;;;7.50;99.90;;;;;;5072558;28;20201;-70
2022/03/26 04:33:51;;;;;;;34.27;19.40;;;7.50;99.90;;;;;;5073120;28;20243;-70
2022/03/26 04:36:18;;;;;;;31.03;18.83;;;7.60;99.90;;;;;;5072245;28;20198;-70
2022/03/26 04:38:46;;;;;;;34.53;19.30;;;7.60;99.90;;;;;;5064438;28;20277;-70
2022/03/26 04:41:13;;;;;;;28.67;18.77;;;7.60;99.90;;;;;;5067464;28;20649;-70
2022/03/26 04:43:40;;;;;;;30.20;19.27;;;7.70;99.90;;;;;;5070608;28;20583;-69
2022/03/26 04:46:08;;;;;;;31.13;19.00;;;7.70;99.90;;;;;;5071578;28;20213;-70
2022/03/26 04:48:35;;;;;;;31.70;17.80;;;7.70;99.90;;;;;;5072108;28;20213;-70
2022/03/26 04:51:02;;;;;;;32.40;17.93;;;7.70;99.90;;;;;;5067968;28;20293;-70
2022/03/26 04:53:29;;;;;;;31.23;18.57;;;7.70;99.90;;;;;;5075260;28;20209;-71
2022/03/26 04:55:57;;;;;;;31.77;19.03;;;7.60;99.90;;;;;;5076819;28;20241;-70
2022/03/26 04:58:24;;;;;;;31.20;18.93;;;7.70;99.90;;;;;;5074264;28;20255;-70
2022/03/26 05:00:51;;;;;;;28.70;19.03;;;7.70;99.90;;;;;;5067660;28;20296;-70
2022/03/26 05:03:18;;;;;;;33.57;18.47;;;7.70;99.90;;;;;;5069323;28;20236;-69
2022/03/26 05:05:45;;;;;;;35.30;20.60;;;7.70;99.90;;;;;;5076608;28;20217;-71
2022/03/26 05:08:12;;;;;;;29.67;18.93;;;7.70;99.90;;;;;;5077077;28;20632;-70
2022/03/26 05:10:38;;;;;;;33.67;19.00;;;7.70;99.90;;;;;;5076897;28;20571;-70
2022/03/26 05:13:07;;;;;;;31.73;18.87;;;7.70;99.90;;;;;;5074442;28;20580;-71
2022/03/26 05:15:34;;;;;;;33.30;17.93;;;7.80;99.90;;;;;;5071354;28;20635;-70
2022/03/26 05:18:01;;;;;;;32.57;17.87;;;7.80;99.90;;;;;;5065159;28;20320;-70
2022/03/26 05:20:28;;;;;;;26.87;17.33;;;7.80;99.90;;;;;;5075021;28;20212;-70
2022/03/26 05:22:55;;;;;;;29.37;18.33;;;8.00;99.90;;;;;;5076023;28;20208;-70
2022/03/26 05:25:22;;;;;;;33.37;19.30;;;8.00;99.90;;;;;;5076061;28;20286;-70
2022/03/26 05:27:51;;;;;;;26.13;17.40;;;8.10;99.90;;;;;;5062936;28;20301;-70
2022/03/26 05:30:20;;;;;;;28.50;17.90;;;8.20;99.90;;;;;;5075040;28;20644;-70
2022/03/26 05:32:47;;;;;;;29.13;17.90;;;8.30;99.90;;;;;;5075522;28;20216;-70
2022/03/26 05:35:16;;;;;;;31.93;19.00;;;8.30;99.90;;;;;;5076599;28;20217;-70
2022/03/26 05:37:43;;;;;;;30.77;18.80;;;8.40;99.90;;;;;;5075769;28;20296;-70
2022/03/26 05:40:12;;;;;;;28.57;17.60;;;8.40;99.90;;;;;;5074990;28;20329;-71
2022/03/26 05:42:39;;;;;;;32.10;19.00;;;8.40;99.90;;;;;;5067750;28;20230;-70
2022/03/26 05:45:08;;;;;;;31.20;18.97;;;8.50;99.90;;;;;;5074113;28;20682;-71
2022/03/26 05:47:37;;;;;;;29.83;18.37;;;8.50;99.90;;;;;;5076403;28;20303;-71
2022/03/26 05:50:06;;;;;;;28.87;18.40;;;8.60;99.90;;;;;;5062283;28;20697;-70
2022/03/26 05:52:33;;;;;;;31.47;17.57;;;8.70;99.90;;;;;;5075319;28;20208;-70
2022/03/26 05:55:00;;;;;;;30.67;17.77;;;8.70;99.90;;;;;;5073763;28;20215;-70
2022/03/26 05:57:27;;;;;;;33.43;18.47;;;8.80;99.90;;;;;;5076124;28;20326;-71
2022/03/26 05:59:54;;;;;;;34.57;19.70;;;8.90;99.90;;;;;;5074801;28;20259;-71
2022/03/26 06:02:21;;;;;;;28.27;17.77;;;9.00;99.90;;;;;;5073466;28;20320;-70
2022/03/26 06:04:49;;;;;;;29.80;17.97;;;9.00;99.90;;;;;;5076133;28;20282;-70
2022/03/26 06:07:16;;;;;;;31.73;18.13;;;9.10;99.90;;;;;;5076050;28;20209;-71
2022/03/26 06:09:43;;;;;;;31.60;17.20;;;9.20;99.90;;;;;;5070813;28;20244;-70
2022/03/26 06:12:10;;;;;;;28.53;17.80;;;9.40;99.90;;;;;;5074286;28;20691;-71
2022/03/26 06:14:37;;;;;;;31.07;17.77;;;9.60;99.90;;;;;;5075915;28;20215;-70
2022/03/26 06:17:05;;;;;;;27.03;17.10;;;9.80;99.90;;;;;;5071853;28;20207;-71
2022/03/26 06:19:32;;;;;;;26.27;16.40;;;9.80;99.90;;;;;;5074963;28;20220;-71
2022/03/26 06:22:00;;;;;;;28.53;17.23;;;9.90;99.90;;;;;;5072281;28;20304;-71
2022/03/26 06:24:27;;;;;;;30.67;16.60;;;9.90;99.90;;;;;;5073330;28;20232;-68
2022/03/26 06:26:54;;;;;;;27.20;16.70;;;9.90;99.90;;;;;;5062833;28;20220;-69
2022/03/26 06:29:21;;;;;;;28.73;17.23;;;10.00;99.90;;;;;;5070159;28;20688;-70
2022/03/26 06:31:48;;;;;;;26.63;16.33;;;10.00;99.90;;;;;;5066154;28;20599;-69
2022/03/26 06:34:15;;;;;;;26.47;16.33;;;10.00;99.90;;;;;;5067925;28;20287;-69
2022/03/26 06:36:42;;;;;;;22.50;16.20;;;10.10;99.90;;;;;;5061729;28;20214;-70
2022/03/26 06:39:11;;;;;;;29.47;15.70;;;10.10;99.90;;;;;;5061173;28;20735;-70
2022/03/26 06:41:39;;;;;;;23.33;15.30;;;10.20;99.90;;;;;;5071124;28;20314;-69
2022/03/26 06:44:08;;;;;;;22.97;15.17;;;10.30;99.90;;;;;;5069308;28;20650;-70
2022/03/26 06:46:36;;;;;;;25.97;15.27;;;10.40;99.90;;;;;;5074411;28;20595;-69
2022/03/26 06:49:03;;;;;;;23.80;15.30;;;10.40;99.90;;;;;;5073881;28;20212;-69
2022/03/26 06:51:31;;;;;;;28.47;15.77;;;10.50;99.90;;;;;;5072432;28;20201;-70
2022/03/26 06:53:58;;;;;;;27.23;15.60;;;10.60;99.90;;;;;;5061715;28;20649;-70
2022/03/26 06:56:26;;;;;;;23.50;14.77;;;10.70;99.90;;;;;;5069310;28;20715;-68
2022/03/26 06:58:54;;;;;;;23.37;13.57;;;10.80;99.90;;;;;;5070352;28;20324;-70
2022/03/26 07:01:21;;;;;;;21.17;12.90;;;10.90;99.90;;;;;;5064543;28;20236;-69
2022/03/26 07:03:48;;;;;;;23.73;14.17;;;11.00;99.90;;;;;;5068674;28;20206;-71
2022/03/26 07:06:19;;;;;;;21.57;13.40;;;11.10;99.80;;;;;;5072694;28;20669;-70
2022/03/26 07:08:46;;;;;;;19.70;13.13;;;11.20;99.50;;;;;;5070814;28;20268;-71
2022/03/26 07:11:13;;;;;;;22.37;13.53;;;11.40;99.40;;;;;;5064053;28;20303;-71
2022/03/26 07:13:41;;;;;;;27.87;13.57;;;11.50;99.00;;;;;;5064506;28;20240;-72
2022/03/26 07:16:08;;;;;;;26.97;14.30;;;11.60;98.50;;;;;;5073281;28;20262;-71
2022/03/26 07:18:35;;;;;;;27.27;15.17;;;11.70;98.10;;;;;;5064868;28;20212;-70
2022/03/26 07:21:02;;;;;;;29.30;14.20;;;11.80;97.70;;;;;;5054222;28;20757;-71
2022/03/26 07:23:29;;;;;;;28.60;14.27;;;11.90;97.50;;;;;;5061754;28;20261;-71
2022/03/26 07:25:57;;;;;;;22.80;14.37;;;12.00;97.30;;;;;;5062168;28;20197;-70
2022/03/26 07:28:23;;;;;;;23.80;14.03;;;12.10;96.80;;;;;;5064661;28;20237;-72
2022/03/26 07:30:52;;;;;;;27.73;14.93;;;12.20;96.40;;;;;;5069331;28;20202;-72
2022/03/26 07:33:19;;;;;;;20.57;13.67;;;12.30;95.90;;;;;;5067099;28;20289;-73
2022/03/26 07:35:46;;;;;;;25.57;14.27;;;12.40;95.60;;;;;;5068933;28;20239;-70
2022/03/26 07:38:13;;;;;;;23.93;13.87;;;12.40;95.20;;;;;;5064935;28;20609;-72
2022/03/26 07:40:40;;;;;;;24.13;14.33;;;12.40;94.90;;;;;;5072094;28;20296;-70
2022/03/26 07:43:08;;;;;;;19.13;12.03;;;12.40;94.70;;;;;;5057474;28;20657;-72
2022/03/26 07:45:35;;;;;;;23.03;13.57;;;12.30;94.70;;;;;;5065104;28;20197;-69
2022/03/26 07:48:05;;;;;;;19.53;13.80;;;12.30;94.80;;;;;;5065270;28;20278;-70
2022/03/26 07:50:32;;;;;;;19.37;13.20;;;12.50;94.70;;;;;;5064996;28;20251;-71
2022/03/26 07:52:59;;;;;;;22.40;13.53;;;12.50;94.30;;;;;;5068020;28;20205;-72
2022/03/26 07:55:26;;;;;;;21.80;13.30;;;12.60;94.20;;;;;;5064375;28;20624;-71
2022/03/26 07:57:53;;;;;;;20.43;12.73;;;12.80;94.10;;;;;;5074813;28;20254;-72
2022/03/26 08:00:20;;;;;;;25.33;12.87;;;13.00;93.90;;;;;;5073321;28;20325;-72
2022/03/26 08:02:47;;;;;;;18.97;12.83;;;13.20;93.50;;;;;;5069874;28;20224;-72
2022/03/26 08:05:16;;;;;;;19.63;12.33;;;13.40;93.10;;;;;;5065898;28;20300;-72
2022/03/26 08:07:43;;;;;;;19.23;10.83;;;13.60;92.60;;;;;;5066529;28;20252;-66
2022/03/26 08:10:11;;;;;;;19.93;12.30;;;13.80;92.00;;;;;;5073283;28;20209;-70
2022/03/26 08:12:38;;;;;;;17.23;12.30;;;14.00;91.70;;;;;;5060533;28;20638;-68
2022/03/26 08:15:06;;;;;;;16.40;11.97;;;14.10;91.10;;;;;;5065384;28;20206;-73
2022/03/26 08:17:33;;;;;;;15.97;11.50;;;14.20;90.70;;;;;;5070224;28;20220;-71
2022/03/26 08:20:01;;;;;;;18.67;11.77;;;14.30;90.40;;;;;;5069076;28;20800;-71
2022/03/26 08:22:29;;;;;;;18.70;11.47;;;14.30;90.10;;;;;;5069577;28;20254;-66
2022/03/26 08:24:56;;;;;;;17.80;11.37;;;14.40;89.50;;;;;;5065925;28;20233;-69
2022/03/26 08:27:24;;;;;;;21.23;10.90;;;14.60;89.30;;;;;;5074089;28;20674;-69
2022/03/26 08:29:52;;;;;;;14.67;11.63;;;14.80;88.60;;;;;;5064035;28;20209;-68
2022/03/26 08:32:19;;;;;;;16.30;10.23;;;14.90;87.60;;;;;;5075206;28;20311;-70
2022/03/26 08:34:47;;;;;;;15.97;9.77;;;14.90;86.60;;;;;;5060156;28;20228;-67
2022/03/26 08:37:14;;;;;;;14.57;10.07;;;14.90;86.60;;;;;;5070155;28;20766;-71
2022/03/26 08:39:42;;;;;;;18.33;10.73;;;15.10;86.70;;;;;;5060245;28;20252;-67
2022/03/26 08:42:09;;;;;;;16.83;8.90;;;15.30;86.70;;;;;;5078023;28;20221;-69
2022/03/26 08:44:36;;;;;;;13.57;7.83;;;15.40;85.20;;;;;;5076528;28;20306;-69
2022/03/26 08:47:05;;;;;;;18.13;8.27;;;15.30;85.40;;;;;;5071653;28;20251;-71
2022/03/26 08:49:36;;;;;;;11.33;7.77;;;15.10;85.80;;;;;;5072543;28;20235;-69
2022/03/26 08:52:04;;;;;;;12.57;7.93;;;14.90;86.40;;;;;;5077933;28;20225;-68
2022/03/26 08:54:31;;;;;;;10.93;8.60;;;14.70;87.50;;;;;;5067744;28;20206;-71
2022/03/26 08:56:59;;;;;;;14.93;9.67;;;14.60;88.50;;;;;;5064903;28;20300;-70
2022/03/26 08:59:26;;;;;;;14.27;9.40;;;14.50;88.90;;;;;;5072260;28;20201;-70
2022/03/26 09:01:53;;;;;;;15.20;9.57;;;14.50;89.30;;;;;;5075597;28;20205;-68
2022/03/26 09:04:20;;;;;;;16.83;10.37;;;14.40;89.50;;;;;;5069798;28;20241;-70
2022/03/26 09:06:47;;;;;;;19.97;11.63;;;14.40;89.60;;;;;;5072714;28;20831;-69
2022/03/26 09:09:16;;;;;;;16.73;11.43;;;14.30;89.60;;;;;;5070160;28;20231;-70
2022/03/26 09:11:43;;;;;;;15.33;11.20;;;14.20;90.20;;;;;;5074878;28;20202;-70
2022/03/26 09:14:13;;;;;;;19.30;12.47;;;14.00;90.20;;;;;;5058276;28;20221;-69
2022/03/26 09:16:40;;;;;;;18.53;12.03;;;14.00;90.40;;;;;;5060422;28;20214;-69
2022/03/26 09:19:07;;;;;;;19.33;12.37;;;13.80;90.50;;;;;;5074131;28;20284;-71
2022/03/26 09:21:35;;;;;;;18.20;12.20;;;13.70;90.90;;;;;;5059115;28;20297;-71
2022/03/26 09:24:01;;;;;;;17.60;11.67;;;13.70;91.00;;;;;;5061711;28;20275;-71
2022/03/26 09:26:30;;;;;;;15.90;11.40;;;13.70;91.20;;;;;;5057365;28;20202;-72
2022/03/26 09:28:56;;;;;;;21.27;12.63;;;13.60;91.30;;;;;;5061056;28;20496;-71
2022/03/26 09:31:25;;;;;;;22.47;13.30;;;13.60;91.50;;;;;;5059020;28;20210;-71
2022/03/26 09:33:52;;;;;;;17.83;12.57;;;13.60;91.60;;;;;;5066649;28;20197;-71
2022/03/26 09:36:19;;;;;;;23.43;12.00;;;13.60;91.60;;;;;;5070832;28;20206;-72
2022/03/26 09:38:46;;;;;;;22.37;12.20;;;13.60;91.60;;;;;;5060272;28;20698;-71
2022/03/26 09:41:13;;;;;;;21.80;13.30;;;13.60;91.60;;;;;;5072196;28;20209;-70
2022/03/26 09:43:41;;;;;;;18.43;12.17;;;13.60;91.60;;;;;;5063200;28;20244;-71
2022/03/26 09:46:08;;;;;;;21.73;13.13;;;13.60;91.60;;;;;;5073843;28;20256;-72
2022/03/26 09:48:38;;;;;;;20.63;13.00;;;13.60;91.60;;;;;;5074090;28;20648;-72
2022/03/26 09:51:05;;;;;;;19.57;13.47;;;13.60;91.60;;;;;;5073922;28;20205;-70
2022/03/26 09:53:34;;;;;;;20.57;13.83;;;13.60;91.60;;;;;;5058181;28;20236;-71
2022/03/26 09:56:01;;;;;;;30.30;15.80;;;13.50;91.50;;;;;;5062620;28;20205;-70
2022/03/26 09:58:28;;;;;;;21.40;12.97;;;13.50;91.70;;;;;;5074414;28;20220;-71
2022/03/26 10:00:57;;;;;;;21.27;13.17;;;13.30;92.00;;;;;;5069422;28;20206;-71
2022/03/26 10:03:24;;;;;;;17.50;12.70;;;13.20;92.50;;;;;;5066398;28;20317;-71
2022/03/26 10:06:03;;;;;;;18.37;13.97;;;13.10;93.10;;;;;;5058435;28;20202;-71
2022/03/26 10:08:31;;;;;;;21.27;12.97;;;12.90;93.80;;;;;;5069747;28;20573;-71
2022/03/26 10:10:58;;;;;;;22.50;13.23;;;12.70;94.20;;;;;;5070085;28;20253;-70
2022/03/26 10:13:36;;;;;;;20.03;14.17;;;12.70;94.80;;;;;;5070268;28;20296;-71
2022/03/26 10:16:05;;;;;;;18.67;12.63;;;12.50;95.40;;;;;;5072529;28;20296;-71
2022/03/26 10:18:35;;;;;;;13.80;11.23;;;12.40;95.90;;;;;;5065172;28;20212;-70
2022/03/26 10:21:07;;;;;;;20.27;12.63;;;12.30;96.60;;;;;;5068215;28;20222;-70
2022/03/26 10:23:34;;;;;;;16.30;12.87;;;12.20;97.40;;;;;;5071683;28;20237;-71
2022/03/26 10:26:09;;;;;;;21.57;13.57;;;12.20;98.50;;;;;;5071299;28;20226;-70
2022/03/26 10:28:36;;;;;;;22.17;13.13;;;12.20;99.50;;;;;;5071308;28;20279;-71
2022/03/26 10:34:07;;;;;;;20.70;13.70;;;12.00;99.90;;;;;;5070355;28;20197;-71
2022/03/26 10:36:37;;;;;;;18.80;13.13;;;12.00;99.90;;;;;;5071143;28;20209;-71
2022/03/26 10:39:06;;;;;;;18.23;12.70;;;12.00;99.90;;;;;;5067005;28;20683;-71
2022/03/26 10:41:34;;;;;;;20.30;12.73;;;11.90;99.90;;;;;;5070704;28;20205;-72
2022/03/26 10:44:09;;;;;;;18.13;12.20;;;11.90;99.90;;;;;;5074213;28;20260;-71
2022/03/26 10:46:47;;;;;;;18.73;12.63;;;11.90;99.90;;;;;;5074602;28;20246;-71
2022/03/26 10:49:24;;;;;;;17.07;12.40;;;11.90;99.90;;;;;;5074480;28;20292;-71
2022/03/26 10:51:53;;;;;;;18.80;12.10;;;11.80;99.90;;;;;;5073986;28;20201;-70
2022/03/26 10:54:27;;;;;;;19.23;13.13;;;11.80;99.90;;;;;;5074407;28;20209;-71
2022/03/26 10:56:55;;;;;;;20.63;12.80;;;11.70;99.90;;;;;;5074821;28;20207;-71
2022/03/26 10:59:23;;;;;;;19.40;12.67;;;11.70;99.90;;;;;;5075277;28;20209;-71
2022/03/26 11:01:50;;;;;;;19.37;12.10;;;11.70;99.90;;;;;;5073855;28;20216;-71
2022/03/26 11:04:18;;;;;;;19.33;12.63;;;11.70;99.90;;;;;;5069046;28;20629;-72
2022/03/26 11:06:45;;;;;;;20.10;12.70;;;11.70;99.90;;;;;;5069555;28;20670;-70
2022/03/26 11:09:15;;;;;;;19.33;13.03;;;11.70;99.90;;;;;;5074033;28;20241;-70
2022/03/26 11:11:43;;;;;;;18.00;12.67;;;11.70;99.90;;;;;;5074889;28;20217;-71
2022/03/26 11:14:15;;;;;;;18.97;11.23;;;11.70;99.90;;;;;;5073870;28;20287;-70
2022/03/26 11:17:07;;;;;;;18.97;12.20;;;11.80;99.90;;;;;;5074960;28;20209;-70
2022/03/26 11:20:02;;;;;;;16.80;11.80;;;11.90;99.90;;;;;;5061273;28;20700;-71
2022/03/26 11:22:35;;;;;;;16.60;11.10;;;12.00;99.90;;;;;;5074435;28;20622;-71
2022/03/26 11:25:43;;;;;;;17.47;11.87;;;12.00;99.90;;;;;;5074782;28;20201;-71
2022/03/26 11:28:39;;;;;;;18.00;10.77;;;12.10;99.90;;;;;;5013279;28;20211;-71
2022/03/26 11:31:12;;;;;;;15.23;10.70;;;12.20;99.90;;;;;;5073332;28;20205;-71
2022/03/26 11:33:39;;;;;;;16.13;11.00;;;12.30;99.90;;;;;;5074656;28;20228;-71
2022/03/26 11:36:07;;;;;;;17.53;11.07;;;12.40;99.90;;;;;;5071765;28;20212;-74
2022/03/26 11:38:34;;;;;;;15.27;10.67;;;12.50;99.90;;;;;;5064857;28;20198;-72
2022/03/26 11:41:05;;;;;;;13.77;9.50;;;12.50;99.90;;;;;;5075327;28;20281;-71
2022/03/26 11:43:52;;;;;;;15.73;10.87;;;12.60;99.90;;;;;;5074010;28;20233;-70
2022/03/26 11:52:15;;;;;;;16.97;10.37;;;12.50;99.90;;;;;;5076752;28;20282;-71
2022/03/26 11:54:42;;;;;;;14.80;10.20;;;12.40;99.90;;;;;;5078518;28;20696;-70
2022/03/26 11:57:16;;;;;;;17.27;11.03;;;12.40;99.90;;;;;;5075403;28;20593;-71
2022/03/26 11:59:43;;;;;;;16.37;10.83;;;12.40;99.90;;;;;;5078721;28;20243;-70
2022/03/26 12:02:18;;;;;;;15.43;9.93;;;12.30;99.90;;;;;;5077590;28;20292;-70
2022/03/26 12:04:51;;;;;;;16.53;11.00;;;12.20;99.90;;;;;;5074176;28;20327;-71
2022/03/26 12:07:18;;;;;;;14.23;10.50;;;12.10;99.90;;;;;;5078360;28;20205;-70
2022/03/26 12:09:46;;;;;;;15.90;10.80;;;12.10;99.90;;;;;;5077297;28;20239;-71
2022/03/26 12:12:17;;;;;;;14.83;11.00;;;12.00;99.90;;;;;;5076715;28;20582;-71
2022/03/26 12:15:21;;;;;;;15.90;11.70;;;12.00;99.90;;;;;;5078055;28;20225;-72
2022/03/26 12:17:49;;;;;;;17.10;10.80;;;12.00;99.90;;;;;;5064374;28;20297;-70
2022/03/26 12:20:22;;;;;;;14.70;10.20;;;12.10;99.90;;;;;;5077303;28;20665;-70
2022/03/26 12:22:51;;;;;;;15.27;11.07;;;12.00;99.90;;;;;;5076848;28;20252;-71
2022/03/26 12:25:19;;;;;;;14.67;10.80;;;12.00;99.90;;;;;;5078137;28;20589;-72
2022/03/26 12:27:49;;;;;;;13.73;10.63;;;12.00;99.90;;;;;;5073606;28;20217;-71
2022/03/26 12:30:17;;;;;;;16.00;10.10;;;12.00;99.90;;;;;;5068059;28;20283;-72
2022/03/26 12:32:44;;;;;;;16.60;10.53;;;12.00;99.90;;;;;;5068027;28;20282;-67
2022/03/26 12:35:11;;;;;;;14.73;11.03;;;11.90;99.90;;;;;;5061168;28;20301;-70
2022/03/26 12:37:40;;;;;;;14.60;9.60;;;12.00;99.90;;;;;;5055244;28;20213;-67
2022/03/26 12:40:09;;;;;;;12.77;9.37;;;12.00;99.90;;;;;;5062787;28;20205;-68
2022/03/26 12:42:36;;;;;;;13.77;8.10;;;11.80;99.90;;;;;;5053597;28;20222;-68
2022/03/26 12:45:15;;;;;;;12.63;7.20;;;12.10;99.90;;;;;;5072611;28;20221;-70
2022/03/26 12:47:45;;;;;;;14.20;8.03;;;12.00;99.90;;;;;;5067623;28;20223;-70